createdAt,value
2022-07-27T00:00:42.121Z,66.42
2022-07-27T00:01:43.911Z,66.42
2022-07-27T00:02:42.047Z,67.00
2022-07-27T00:03:42.033Z,66.80
2022-07-27T00:04:42.058Z,67.00
2022-07-27T00:05:42.011Z,67.09
2022-07-27T00:06:41.995Z,67.19
2022-07-27T00:07:41.983Z,67.29
2022-07-27T00:08:41.970Z,67.00
2022-07-27T00:09:41.961Z,67.00
2022-07-27T00:10:41.945Z,66.90
2022-07-27T00:11:41.932Z,67.38
2022-07-27T00:12:41.967Z,67.47
2022-07-27T00:13:41.910Z,67.57
2022-07-27T00:14:41.896Z,67.19
2022-07-27T00:15:41.883Z,67.47
2022-07-27T00:16:41.901Z,67.38
2022-07-27T00:17:41.859Z,67.38
2022-07-27T00:18:41.843Z,67.57
2022-07-27T00:19:41.837Z,67.96
2022-07-27T00:20:41.818Z,67.86
2022-07-27T00:21:44.838Z,67.76
2022-07-27T00:22:41.796Z,68.34
2022-07-27T00:23:41.782Z,68.24
2022-07-27T00:24:41.769Z,68.15
2022-07-27T00:25:41.758Z,68.63
2022-07-27T00:26:41.744Z,68.44
2022-07-27T00:27:41.733Z,68.82
2022-07-27T00:28:41.720Z,68.98
2022-07-27T00:29:41.707Z,68.53
2022-07-27T00:30:41.695Z,68.82
2022-07-27T00:31:41.702Z,69.20
2022-07-27T00:32:41.670Z,69.49
2022-07-27T00:33:41.659Z,69.78
2022-07-27T00:34:41.641Z,69.36
2022-07-27T00:35:41.628Z,69.46
2022-07-27T00:36:41.623Z,70.17
2022-07-27T00:37:41.606Z,70.07
2022-07-27T00:38:41.592Z,69.97
2022-07-27T00:39:41.578Z,70.17
2022-07-27T00:40:41.567Z,69.97
2022-07-27T00:41:41.553Z,70.26
2022-07-27T00:42:41.541Z,70.17
2022-07-27T00:43:41.531Z,69.78
2022-07-27T00:44:41.517Z,70.17
2022-07-27T00:45:41.505Z,70.26
2022-07-27T00:46:41.518Z,70.26
2022-07-27T00:47:41.481Z,70.17
2022-07-27T00:48:41.503Z,69.53
2022-07-27T00:49:41.455Z,70.01
2022-07-27T00:50:41.443Z,69.34
2022-07-27T00:51:41.424Z,69.59
2022-07-27T00:52:41.416Z,69.62
2022-07-27T00:53:41.411Z,70.01
2022-07-27T00:54:41.391Z,69.72
2022-07-27T00:55:41.374Z,69.91
2022-07-27T00:56:41.365Z,69.53
2022-07-27T00:57:58.002Z,69.91
2022-07-27T00:58:41.340Z,69.53
2022-07-27T00:59:41.325Z,69.91
2022-07-27T01:00:41.313Z,69.81
2022-07-27T01:01:41.352Z,69.81
2022-07-27T01:02:45.712Z,69.81
2022-07-27T01:03:41.274Z,70.01
2022-07-27T01:04:41.263Z,70.01
2022-07-27T01:05:42.914Z,69.81
2022-07-27T01:06:41.239Z,69.62
2022-07-27T01:07:41.224Z,69.62
2022-07-27T01:08:41.212Z,69.62
2022-07-27T01:09:41.201Z,69.62
2022-07-27T01:10:41.189Z,69.81
2022-07-27T01:11:41.187Z,70.20
2022-07-27T01:12:41.162Z,70.01
2022-07-27T01:13:41.149Z,70.01
2022-07-27T01:14:41.136Z,69.72
2022-07-27T01:15:41.190Z,69.72
2022-07-27T01:16:41.162Z,69.81
2022-07-27T01:17:41.104Z,70.10
2022-07-27T01:18:41.089Z,70.10
2022-07-27T01:19:41.074Z,70.20
2022-07-27T01:20:41.061Z,70.01
2022-07-27T01:21:41.049Z,70.20
2022-07-27T01:22:41.036Z,70.10
2022-07-27T01:23:41.021Z,70.39
2022-07-27T01:24:41.012Z,70.49
2022-07-27T01:25:40.997Z,70.58
2022-07-27T01:26:40.989Z,70.58
2022-07-27T01:27:40.976Z,70.58
2022-07-27T01:28:40.961Z,70.39
2022-07-27T01:29:40.947Z,70.49
2022-07-27T01:30:40.935Z,70.49
2022-07-27T01:31:40.988Z,70.39
2022-07-27T01:32:40.910Z,70.68
2022-07-27T01:33:40.906Z,70.97
2022-07-27T01:34:40.886Z,70.49
2022-07-27T01:35:40.873Z,70.58
2022-07-27T01:36:40.866Z,70.97
2022-07-27T01:37:40.846Z,71.06
2022-07-27T01:38:40.833Z,70.97
2022-07-27T01:39:40.821Z,70.97
2022-07-27T01:40:40.811Z,70.87
2022-07-27T01:41:40.797Z,70.87
2022-07-27T01:42:40.790Z,70.87
2022-07-27T01:43:40.769Z,70.78
2022-07-27T01:44:40.761Z,70.97
2022-07-27T01:45:40.746Z,70.97
2022-07-27T01:46:40.816Z,71.06
2022-07-27T01:47:40.726Z,70.39
2022-07-27T01:48:40.751Z,70.49
2022-07-27T01:49:40.695Z,70.58
2022-07-27T01:50:40.682Z,70.68
2022-07-27T01:51:40.671Z,70.68
2022-07-27T01:52:40.662Z,70.58
2022-07-27T01:53:40.643Z,70.58
2022-07-27T01:54:40.637Z,70.39
2022-07-27T01:55:40.620Z,70.39
2022-07-27T01:56:40.608Z,70.49
2022-07-27T01:57:40.594Z,70.58
2022-07-27T01:58:40.585Z,70.29
2022-07-27T01:59:40.572Z,70.58
2022-07-27T02:00:40.558Z,70.49
2022-07-27T02:01:40.577Z,70.97
2022-07-27T02:02:40.532Z,70.49
2022-07-27T02:03:40.519Z,70.58
2022-07-27T02:04:40.511Z,71.35
2022-07-27T02:05:40.560Z,71.16
2022-07-27T02:06:40.501Z,71.03
2022-07-27T02:07:40.469Z,71.22
2022-07-27T02:08:40.459Z,70.97
2022-07-27T02:09:40.444Z,70.87
2022-07-27T02:10:40.430Z,70.87
2022-07-27T02:11:40.418Z,71.12
2022-07-27T02:12:40.406Z,71.25
2022-07-27T02:13:40.390Z,71.03
2022-07-27T02:14:40.378Z,70.97
2022-07-27T02:15:44.455Z,71.06
2022-07-27T02:16:40.446Z,71.64
2022-07-27T02:17:40.340Z,71.61
2022-07-27T02:18:40.329Z,71.45
2022-07-27T02:19:40.316Z,71.25
2022-07-27T02:20:40.307Z,71.22
2022-07-27T02:21:40.295Z,71.16
2022-07-27T02:22:40.277Z,71.25
2022-07-27T02:23:40.266Z,71.25
2022-07-27T02:24:40.252Z,71.35
2022-07-27T02:25:40.245Z,71.35
2022-07-27T02:26:40.226Z,71.45
2022-07-27T02:27:40.262Z,71.31
2022-07-27T02:28:40.204Z,71.45
2022-07-27T02:29:40.189Z,71.45
2022-07-27T02:30:40.179Z,71.35
2022-07-27T02:31:40.161Z,71.64
2022-07-27T02:32:40.178Z,71.93
2022-07-27T02:33:40.140Z,71.70
2022-07-27T02:34:40.129Z,71.73
2022-07-27T02:35:40.109Z,71.93
2022-07-27T02:36:40.100Z,71.83
2022-07-27T02:37:40.085Z,71.70
2022-07-27T02:38:40.076Z,71.55
2022-07-27T02:39:40.061Z,71.64
2022-07-27T02:40:40.050Z,71.73
2022-07-27T02:41:40.034Z,71.73
2022-07-27T02:42:40.030Z,71.73
2022-07-27T02:43:40.021Z,71.89
2022-07-27T02:44:39.997Z,71.89
2022-07-27T02:45:39.988Z,71.93
2022-07-27T02:46:40.058Z,72.22
2022-07-27T02:47:39.963Z,71.80
2022-07-27T02:48:39.990Z,72.02
2022-07-27T02:49:39.932Z,71.98
2022-07-27T02:50:39.921Z,71.89
2022-07-27T02:51:39.909Z,72.02
2022-07-27T02:52:39.896Z,71.93
2022-07-27T02:53:39.884Z,72.02
2022-07-27T02:54:39.877Z,71.89
2022-07-27T02:55:39.858Z,71.80
2022-07-27T02:56:39.847Z,72.50
2022-07-27T02:57:39.831Z,72.28
2022-07-27T02:58:39.820Z,72.95
2022-07-27T02:59:39.823Z,72.75
2022-07-27T03:00:39.806Z,72.75
2022-07-27T03:01:39.805Z,72.66
2022-07-27T03:02:39.772Z,72.28
2022-07-27T03:03:39.755Z,71.98
2022-07-27T03:04:39.788Z,72.28
2022-07-27T03:05:39.738Z,71.98
2022-07-27T03:06:39.718Z,72.28
2022-07-27T03:07:39.703Z,72.28
2022-07-27T03:08:39.694Z,72.66
2022-07-27T03:09:39.681Z,72.56
2022-07-27T03:10:39.671Z,72.56
2022-07-27T03:11:39.650Z,72.85
2022-07-27T03:12:39.641Z,72.85
2022-07-27T03:13:39.643Z,73.04
2022-07-27T03:14:39.618Z,72.75
2022-07-27T03:15:39.648Z,72.66
2022-07-27T03:16:39.590Z,72.75
2022-07-27T03:17:39.581Z,72.95
2022-07-27T03:18:39.571Z,72.75
2022-07-27T03:19:39.551Z,72.85
2022-07-27T03:20:39.537Z,73.04
2022-07-27T03:21:39.526Z,73.14
2022-07-27T03:22:39.514Z,72.85
2022-07-27T03:23:39.497Z,72.85
2022-07-27T03:24:39.487Z,72.85
2022-07-27T03:25:39.477Z,72.95
2022-07-27T03:26:39.457Z,73.04
2022-07-27T03:27:39.448Z,72.75
2022-07-27T03:28:39.434Z,72.95
2022-07-27T03:29:39.421Z,73.14
2022-07-27T03:30:39.448Z,73.14
2022-07-27T03:31:39.413Z,73.33
2022-07-27T03:32:39.384Z,73.39
2022-07-27T03:33:39.372Z,73.52
2022-07-27T03:34:39.360Z,73.43
2022-07-27T03:35:39.341Z,73.43
2022-07-27T03:36:47.323Z,73.52
2022-07-27T03:38:44.994Z,73.14
2022-07-27T03:39:44.793Z,73.10
2022-07-27T03:41:50.378Z,73.49
2022-07-27T03:42:50.294Z,73.68
2022-07-27T03:44:55.725Z,73.68
2022-07-27T03:45:55.669Z,73.77
2022-07-27T03:47:49.104Z,73.97
2022-07-27T03:48:49.096Z,73.97
2022-07-27T03:50:53.517Z,73.68
2022-07-27T03:51:53.564Z,74.06
2022-07-27T03:52:53.479Z,74.26
2022-07-27T03:53:53.427Z,74.54
2022-07-27T03:54:53.413Z,74.26
2022-07-27T03:55:53.401Z,74.44
2022-07-27T03:56:53.386Z,74.44
2022-07-27T03:57:53.380Z,74.54
2022-07-27T03:58:53.392Z,74.44
2022-07-27T03:59:53.487Z,74.64
2022-07-27T04:00:53.341Z,74.54
2022-07-27T04:01:53.321Z,74.35
2022-07-27T04:02:53.391Z,74.64
2022-07-27T04:03:53.301Z,74.44
2022-07-27T04:04:53.284Z,75.21
2022-07-27T04:05:53.274Z,75.02
2022-07-27T04:06:53.252Z,75.12
2022-07-27T04:07:54.728Z,74.83
2022-07-27T04:08:59.356Z,75.02
2022-07-27T04:09:53.217Z,74.93
2022-07-27T04:10:53.202Z,75.08
2022-07-27T04:11:53.190Z,75.08
2022-07-27T04:12:53.178Z,75.46
2022-07-27T04:13:53.165Z,75.18
2022-07-27T04:14:53.150Z,74.89
2022-07-27T04:15:53.139Z,74.98
2022-07-27T04:16:53.243Z,75.37
2022-07-27T04:17:56.350Z,75.46
2022-07-27T04:18:53.100Z,75.79
2022-07-27T04:19:53.086Z,75.18
2022-07-27T04:20:53.072Z,75.08
2022-07-27T04:21:53.061Z,75.08
2022-07-27T04:22:53.054Z,75.18
2022-07-27T04:23:53.037Z,75.08
2022-07-27T04:24:53.020Z,76.27
2022-07-27T04:25:53.008Z,76.32
2022-07-27T04:26:52.996Z,75.65
2022-07-27T04:27:52.980Z,75.56
2022-07-27T04:28:52.966Z,75.65
2022-07-27T04:29:52.956Z,75.56
2022-07-27T04:30:52.992Z,75.56
2022-07-27T04:31:53.175Z,75.56
2022-07-27T04:32:52.937Z,75.60
2022-07-27T04:33:52.903Z,75.98
2022-07-27T04:34:52.889Z,75.75
2022-07-27T04:35:52.879Z,75.79
2022-07-27T04:36:52.866Z,75.79
2022-07-27T04:37:58.563Z,76.07
2022-07-27T04:38:52.840Z,75.98
2022-07-27T04:39:52.824Z,76.07
2022-07-27T04:40:57.904Z,76.07
2022-07-27T04:41:52.797Z,75.89
2022-07-27T04:42:52.787Z,75.79
2022-07-27T04:43:52.771Z,75.79
2022-07-27T04:44:52.757Z,75.89
2022-07-27T04:45:52.771Z,75.79
2022-07-27T04:46:52.733Z,75.89
2022-07-27T04:47:52.717Z,75.89
2022-07-27T04:48:52.729Z,75.70
2022-07-27T04:49:52.695Z,75.89
2022-07-27T04:50:52.678Z,76.07
2022-07-27T04:51:52.665Z,75.60
2022-07-27T04:52:52.651Z,75.31
2022-07-27T04:53:57.966Z,75.31
2022-07-27T04:54:52.628Z,75.82
2022-07-27T04:55:52.618Z,75.15
2022-07-27T04:56:52.601Z,76.02
2022-07-27T04:57:52.595Z,75.63
2022-07-27T04:58:52.573Z,75.92
2022-07-27T04:59:52.575Z,75.45
2022-07-27T05:00:52.630Z,74.96
2022-07-27T05:01:52.649Z,75.35
2022-07-27T05:02:52.523Z,75.25
2022-07-27T05:03:52.565Z,75.06
2022-07-27T05:04:52.497Z,74.87
2022-07-27T05:05:52.485Z,75.10
2022-07-27T05:06:52.490Z,75.20
2022-07-27T05:07:52.457Z,75.10
2022-07-27T05:08:52.444Z,74.43
2022-07-27T05:09:52.433Z,74.62
2022-07-27T05:10:52.423Z,74.33
2022-07-27T05:11:52.524Z,74.62
2022-07-27T05:12:52.402Z,74.81
2022-07-27T05:13:52.382Z,74.52
2022-07-27T05:14:52.371Z,74.43
2022-07-27T05:15:54.786Z,74.62
2022-07-27T05:16:52.392Z,74.43
2022-07-27T05:17:52.329Z,73.75
2022-07-27T05:18:52.320Z,74.23
2022-07-27T05:19:52.303Z,74.13
2022-07-27T05:20:52.297Z,74.23
2022-07-27T05:21:52.279Z,73.85
2022-07-27T05:22:52.273Z,73.75
2022-07-27T05:23:52.250Z,74.04
2022-07-27T05:24:52.242Z,73.66
2022-07-27T05:25:52.231Z,73.27
2022-07-27T05:26:52.219Z,73.46
2022-07-27T05:27:54.613Z,73.37
2022-07-27T05:28:52.193Z,73.27
2022-07-27T05:29:52.176Z,73.56
2022-07-27T05:30:52.166Z,73.66
2022-07-27T05:31:52.222Z,73.18
2022-07-27T05:32:52.149Z,73.21
2022-07-27T05:33:57.741Z,73.02
2022-07-27T05:34:52.128Z,72.44
2022-07-27T05:35:52.103Z,72.34
2022-07-27T05:36:52.089Z,72.54
2022-07-27T05:37:52.076Z,72.44
2022-07-27T05:38:52.068Z,72.54
2022-07-27T05:39:52.057Z,71.87
2022-07-27T05:40:52.042Z,71.87
2022-07-27T05:41:52.029Z,72.06
2022-07-27T05:42:52.014Z,71.81
2022-07-27T05:43:52.000Z,71.67
2022-07-27T05:44:51.990Z,71.29
2022-07-27T05:45:52.097Z,71.96
2022-07-27T05:46:51.968Z,71.77
2022-07-27T05:47:51.951Z,71.77
2022-07-27T05:48:51.970Z,71.33
2022-07-27T05:49:51.927Z,71.52
2022-07-27T05:50:51.917Z,71.67
2022-07-27T05:51:51.918Z,71.77
2022-07-27T05:52:51.891Z,71.33
2022-07-27T05:53:51.880Z,71.33
2022-07-27T05:54:51.866Z,71.42
2022-07-27T05:55:58.698Z,70.94
2022-07-27T05:56:51.858Z,71.04
2022-07-27T05:57:51.827Z,70.94
2022-07-27T05:58:51.815Z,70.65
2022-07-27T05:59:51.801Z,70.84
2022-07-27T06:00:51.891Z,70.75
2022-07-27T06:01:51.818Z,70.37
2022-07-27T06:02:51.767Z,70.65
2022-07-27T06:03:51.851Z,70.56
2022-07-27T06:04:51.745Z,70.46
2022-07-27T06:05:51.734Z,70.17
2022-07-27T06:06:51.731Z,70.37
2022-07-27T06:07:51.702Z,70.07
2022-07-27T06:08:51.697Z,70.07
2022-07-27T06:09:51.681Z,70.07
2022-07-27T06:10:51.670Z,69.98
2022-07-27T06:11:51.661Z,69.69
2022-07-27T06:12:51.645Z,69.60
2022-07-27T06:13:51.631Z,69.60
2022-07-27T06:14:51.641Z,69.31
2022-07-27T06:15:51.606Z,69.60
2022-07-27T06:16:51.661Z,69.63
2022-07-27T06:17:51.581Z,69.44
2022-07-27T06:18:51.575Z,68.83
2022-07-27T06:19:51.565Z,68.92
2022-07-27T06:20:51.547Z,69.31
2022-07-27T06:21:53.755Z,69.21
2022-07-27T06:22:51.538Z,69.40
2022-07-27T06:23:51.510Z,69.12
2022-07-27T06:24:51.497Z,69.40
2022-07-27T06:25:51.495Z,69.02
2022-07-27T06:26:51.475Z,69.02
2022-07-27T06:27:51.461Z,69.21
2022-07-27T06:28:51.449Z,68.63
2022-07-27T06:29:51.434Z,68.92
2022-07-27T06:30:51.426Z,68.92
2022-07-27T06:31:51.560Z,68.63
2022-07-27T06:32:51.401Z,68.63
2022-07-27T06:33:52.385Z,69.31
2022-07-27T06:34:51.375Z,69.40
2022-07-27T06:35:51.361Z,69.24
2022-07-27T06:36:51.351Z,68.96
2022-07-27T06:37:51.338Z,68.57
2022-07-27T06:38:51.338Z,68.57
2022-07-27T06:39:51.323Z,68.29
2022-07-27T06:40:51.305Z,68.09
2022-07-27T06:41:56.192Z,67.99
2022-07-27T06:42:51.280Z,68.03
2022-07-27T06:43:51.265Z,67.55
2022-07-27T06:44:51.253Z,67.65
2022-07-27T06:45:51.246Z,67.65
2022-07-27T06:46:51.353Z,67.83
2022-07-27T06:47:51.216Z,67.74
2022-07-27T06:48:51.257Z,67.65
2022-07-27T06:49:51.193Z,67.45
2022-07-27T06:50:51.193Z,67.35
2022-07-27T06:51:51.170Z,67.35
2022-07-27T06:52:51.166Z,67.55
2022-07-27T06:53:51.149Z,67.07
2022-07-27T06:54:51.137Z,66.81
2022-07-27T06:55:51.124Z,66.91
2022-07-27T06:56:51.119Z,67.10
2022-07-27T06:57:51.130Z,66.71
2022-07-27T06:58:51.093Z,66.33
2022-07-27T06:59:51.076Z,66.36
2022-07-27T07:00:51.108Z,65.69
2022-07-27T07:01:51.053Z,65.50
2022-07-27T07:02:51.041Z,65.50
2022-07-27T07:03:51.105Z,65.33
2022-07-27T07:04:51.019Z,65.43
2022-07-27T07:05:51.029Z,64.66
2022-07-27T07:06:50.997Z,64.56
2022-07-27T07:07:50.982Z,63.98
2022-07-27T07:08:50.977Z,64.05
2022-07-27T07:09:50.965Z,64.53
2022-07-27T07:10:50.951Z,64.82
2022-07-27T07:11:50.937Z,64.43
2022-07-27T07:12:50.930Z,65.11
2022-07-27T07:13:50.914Z,65.01
2022-07-27T07:14:50.906Z,65.30
2022-07-27T07:15:50.939Z,64.73
2022-07-27T07:16:50.988Z,64.53
2022-07-27T07:17:50.869Z,64.53
2022-07-27T07:18:52.644Z,64.18
2022-07-27T07:19:50.846Z,64.08
2022-07-27T07:20:50.876Z,64.08
2022-07-27T07:21:50.834Z,63.89
2022-07-27T07:22:50.822Z,63.73
2022-07-27T07:23:50.818Z,63.92
2022-07-27T07:24:50.793Z,63.15
2022-07-27T07:25:50.787Z,62.76
2022-07-27T07:26:50.776Z,63.28
2022-07-27T07:27:50.761Z,62.89
2022-07-27T07:28:50.749Z,62.41
2022-07-27T07:29:50.737Z,62.22
2022-07-27T07:30:50.743Z,62.05
2022-07-27T07:31:50.777Z,62.15
2022-07-27T07:32:50.705Z,62.15
2022-07-27T07:33:50.695Z,61.28
2022-07-27T07:34:50.686Z,60.89
2022-07-27T07:36:12.460Z,60.64
2022-07-27T07:36:50.670Z,60.64
2022-07-27T07:37:50.901Z,60.73
2022-07-27T07:38:50.643Z,60.25
2022-07-27T07:39:50.632Z,60.25
2022-07-27T07:40:50.622Z,59.86
2022-07-27T07:41:50.613Z,59.70
2022-07-27T07:42:50.603Z,59.60
2022-07-27T07:43:50.596Z,59.70
2022-07-27T07:44:50.588Z,59.70
2022-07-27T07:45:52.206Z,59.02
2022-07-27T07:46:50.591Z,59.02
2022-07-27T07:47:50.562Z,58.54
2022-07-27T07:48:50.577Z,58.76
2022-07-27T07:49:50.587Z,57.70
2022-07-27T07:50:52.191Z,57.70
2022-07-27T07:51:50.516Z,57.89
2022-07-27T07:52:50.509Z,57.79
2022-07-27T07:53:50.497Z,57.51
2022-07-27T07:54:50.494Z,57.51
2022-07-27T07:55:50.487Z,57.05
2022-07-27T07:56:50.478Z,56.86
2022-07-27T07:57:50.804Z,56.57
2022-07-27T07:58:50.454Z,56.18
2022-07-27T07:59:50.446Z,56.18
2022-07-27T08:00:50.448Z,56.28
2022-07-27T08:01:50.460Z,56.40
2022-07-27T08:02:50.495Z,56.21
2022-07-27T08:03:51.313Z,55.82
2022-07-27T08:04:50.410Z,55.76
2022-07-27T08:05:50.393Z,55.46
2022-07-27T08:06:50.389Z,54.88
2022-07-27T08:07:50.378Z,54.71
2022-07-27T08:08:50.388Z,53.85
2022-07-27T08:09:50.363Z,54.13
2022-07-27T08:10:50.357Z,53.55
2022-07-27T08:11:50.350Z,53.09
2022-07-27T08:12:50.342Z,53.09
2022-07-27T08:13:50.334Z,52.80
2022-07-27T08:14:50.328Z,52.64
2022-07-27T08:15:50.351Z,52.03
2022-07-27T08:16:50.312Z,52.12
2022-07-27T08:17:50.302Z,52.32
2022-07-27T08:18:50.298Z,52.22
2022-07-27T08:19:50.294Z,52.54
2022-07-27T08:20:50.284Z,52.12
2022-07-27T08:21:50.276Z,52.32
2022-07-27T08:22:50.268Z,51.84
2022-07-27T08:23:50.260Z,51.62
2022-07-27T08:24:50.252Z,51.62
2022-07-27T08:25:50.250Z,52.27
2022-07-27T08:26:50.244Z,52.08
2022-07-27T08:27:50.259Z,52.08
2022-07-27T08:28:50.658Z,52.27
2022-07-27T08:29:51.787Z,52.24
2022-07-27T08:30:50.254Z,52.14
2022-07-27T08:31:51.178Z,52.14
2022-07-27T08:32:50.191Z,52.44
2022-07-27T08:33:50.183Z,52.53
2022-07-27T08:34:50.185Z,52.08
2022-07-27T08:35:50.168Z,51.50
2022-07-27T08:36:50.170Z,51.50
2022-07-27T08:37:50.161Z,51.88
2022-07-27T08:38:50.148Z,51.59
2022-07-27T08:40:38.272Z,51.52
2022-07-27T08:40:50.297Z,51.23
2022-07-27T08:41:50.122Z,51.04
2022-07-27T08:42:50.117Z,50.55
2022-07-27T08:43:50.106Z,50.48
2022-07-27T08:44:50.098Z,50.21
2022-07-27T08:45:50.127Z,49.66
2022-07-27T08:46:50.163Z,48.90
2022-07-27T08:47:50.081Z,48.54
2022-07-27T08:48:50.146Z,47.76
2022-07-27T08:49:50.152Z,47.47
2022-07-27T08:50:50.057Z,47.40
2022-07-27T08:51:50.048Z,46.81
2022-07-27T08:52:50.053Z,46.94
2022-07-27T08:53:52.475Z,46.45
2022-07-27T08:54:50.032Z,46.28
2022-07-27T08:55:50.024Z,46.01
2022-07-27T08:56:50.024Z,45.52
2022-07-27T08:57:50.014Z,45.15
2022-07-27T08:58:50.025Z,44.49
2022-07-27T08:59:50.002Z,43.52
2022-07-27T09:00:50.371Z,43.52
2022-07-27T09:01:50.084Z,43.43
2022-07-27T09:02:50.033Z,43.64
2022-07-27T09:03:49.988Z,43.76
2022-07-27T09:04:49.976Z,42.69
2022-07-27T09:05:49.968Z,42.40
2022-07-27T09:06:53.280Z,42.00
2022-07-27T09:07:49.961Z,42.10
2022-07-27T09:08:53.240Z,42.20
2022-07-27T09:09:49.949Z,42.47
2022-07-27T09:10:49.959Z,41.67
2022-07-27T09:11:49.937Z,42.06
2022-07-27T09:12:49.942Z,42.11
2022-07-27T09:13:49.928Z,42.70
2022-07-27T09:14:53.164Z,43.16
2022-07-27T09:16:16.420Z,43.46
2022-07-27T09:17:45.936Z,43.15
2022-07-27T09:17:50.361Z,43.41
2022-07-27T09:18:49.901Z,43.49
2022-07-27T09:19:49.895Z,43.98
2022-07-27T09:20:49.891Z,44.34
2022-07-27T09:21:49.883Z,44.83
2022-07-27T09:22:49.885Z,45.10
2022-07-27T09:23:49.872Z,44.61
2022-07-27T09:24:49.866Z,44.61
2022-07-27T09:26:03.662Z,44.88
2022-07-27T09:26:49.855Z,45.78
2022-07-27T09:27:49.848Z,45.21
2022-07-27T09:28:49.843Z,44.92
2022-07-27T09:29:49.834Z,44.75
2022-07-27T09:30:49.859Z,44.27
2022-07-27T09:31:49.915Z,44.46
2022-07-27T09:32:52.862Z,44.07
2022-07-27T09:33:49.807Z,43.88
2022-07-27T09:34:49.802Z,44.27
2022-07-27T09:35:49.794Z,44.07
2022-07-27T09:36:49.791Z,44.07
2022-07-27T09:37:49.782Z,43.88
2022-07-27T09:38:54.351Z,44.17
2022-07-27T09:39:49.773Z,43.98
2022-07-27T09:40:49.777Z,43.80
2022-07-27T09:41:49.759Z,43.24
2022-07-27T09:43:08.961Z,43.34
2022-07-27T09:44:53.669Z,42.58
2022-07-27T09:45:51.527Z,42.49
2022-07-27T09:46:49.846Z,42.19
2022-07-27T09:47:50.059Z,42.36
2022-07-27T09:48:49.953Z,42.68
2022-07-27T09:49:50.007Z,42.87
2022-07-27T09:51:01.864Z,42.39
2022-07-27T09:51:59.961Z,42.41
2022-07-27T09:52:49.872Z,42.39
2022-07-27T09:53:49.951Z,42.39
2022-07-27T09:54:49.879Z,42.39
2022-07-27T09:55:49.847Z,42.78
2022-07-27T09:56:49.827Z,42.76
2022-07-27T09:57:49.991Z,42.76
2022-07-27T09:58:49.894Z,42.66
2022-07-27T09:59:49.915Z,43.15
2022-07-27T10:00:49.933Z,43.05
2022-07-27T10:01:54.562Z,42.95
2022-07-27T10:02:49.926Z,42.87
2022-07-27T10:03:49.789Z,42.78
2022-07-27T10:04:49.933Z,42.39
2022-07-27T10:05:49.870Z,42.49
2022-07-27T10:07:02.413Z,42.29
2022-07-27T10:07:49.901Z,42.31
2022-07-27T10:08:49.773Z,42.21
2022-07-27T10:09:49.681Z,42.21
2022-07-27T10:10:49.700Z,41.55
2022-07-27T10:11:49.704Z,41.48
2022-07-27T10:12:54.773Z,41.20
2022-07-27T10:13:49.770Z,40.35
2022-07-27T10:14:49.817Z,40.17
2022-07-27T10:15:49.936Z,39.51
2022-07-27T10:16:49.689Z,39.04
2022-07-27T10:17:49.708Z,38.57
2022-07-27T10:18:55.394Z,37.81
2022-07-27T10:19:49.786Z,37.52
2022-07-27T10:20:49.854Z,37.12
2022-07-27T10:21:49.757Z,37.41
2022-07-27T10:22:49.888Z,36.73
2022-07-27T10:23:50.228Z,36.93
2022-07-27T10:24:53.188Z,36.83
2022-07-27T10:25:49.723Z,36.63
2022-07-27T10:27:03.847Z,36.63
2022-07-27T10:29:16.286Z,36.63
2022-07-27T10:29:59.620Z,36.52
2022-07-27T10:30:59.824Z,36.52
2022-07-27T10:33:46.528Z,36.34
2022-07-27T10:34:28.041Z,36.46
2022-07-27T10:35:27.872Z,35.50
2022-07-27T10:36:41.024Z,35.21
2022-07-27T10:38:33.669Z,34.57
2022-07-27T10:39:33.516Z,34.00
2022-07-27T10:40:33.418Z,33.82
2022-07-27T10:41:33.450Z,33.43
2022-07-27T10:42:33.501Z,33.15
2022-07-27T10:43:33.808Z,32.94
2022-07-27T10:44:33.688Z,33.12
2022-07-27T10:47:12.469Z,31.57
2022-07-27T10:48:12.080Z,31.96
2022-07-27T10:50:24.721Z,32.06
2022-07-27T10:51:24.328Z,32.23
2022-07-27T10:54:11.947Z,32.60
2022-07-27T10:54:32.485Z,32.95
2022-07-27T10:56:45.132Z,33.33
